Airfield :
LOGIN :

Register | Disclaimer

   EN    FR    IT 

 










Legend :    VFR   Marginal VFR   IFR   Intensive IFR   Very Intensive IFR
Visi :
Ceiling :
>= 8 km
>= 3000ft
5 to 8 km
1000 to 3000 ft
1500m to 5 km
500 to 1000 ft
800 to 1500m
200 to 500 ft
< 800m
< 200 ft
Symbols :   Thunderstorms  Fog  Heavy snow  Heavy precipitations  Wind > 20 kt
SIGMETs :     Misc.  Thunderstorms  Icing  Turbulence  Mountain Waves  Volcanic Ashes






- Airport Elevation : 313 ft
- IATA code : LEH


LFOH - Le Havre Octeville

CURRENT METAR :
  • 050800Z AUTO 17007KT 140V200 CAVOK 18/13 Q1009 BECMG 19015G25KT

EXPIRED METARs :
  • 050730Z AUTO 19007KT 160V220 CAVOK 17/13 Q1010 BECMG 19015G25KT
  • 050700Z AUTO 19006KT 140V210 CAVOK 17/14 Q1010 BECMG 19015G25KT
  • 050630Z AUTO 17005KT 130V190 CAVOK 16/13 Q1010 BECMG 19015G25KT
  • 050600Z AUTO 16003KT 9000 NSC 16/14 Q1010 NOSIG

TAF TAF LFOH
Valid from the 05 at 06:00 until the 06 at 06:00 UTC


050500Z 0506/0606 16005KT 9999 SCT040
BECMG 0508/0511 19015G25KT
TEMPO 0511/0514 3000 SHRA
TEMPO 0514/0518 3000 RA BKN014 BKN030TCU
TEMPO 0518/0606 3000 RA BKN008 BKN015TCU
PROB40
TEMPO 0600/0606 22020G35KT
ATIS : +33 2 35 54 64 93



MET'MAP, your aeronautical weather chart ! - Copyright ORBIFLY December 2007 - Disclaimer

ORBIFLY MET'MAP TEAM :

Programming & Development : Alexandra Zaïnal
Concept & original design : Baudouin d'Aumeries
Assistance for programming : Marc-Olivier Méhu
Technical & hardware support : Manuel Goepfert

Contact : metmap@orbifly.com




SOURCES & CREDITS :

   NOAA